sensor_id;sensor_type;location;lat;lon;timestamp;temperature;humidity
7214;DHT22;3648;50.614;13.830;2022-11-15T00:02:10;5.30;99.90
7214;DHT22;3648;50.614;13.830;2022-11-15T00:04:37;5.40;99.90
7214;DHT22;3648;50.614;13.830;2022-11-15T00:07:05;5.40;99.90
7214;DHT22;3648;50.614;13.830;2022-11-15T00:09:32;5.40;99.90
7214;DHT22;3648;50.614;13.830;2022-11-15T00:11:59;5.50;99.90
7214;DHT22;3648;50.614;13.830;2022-11-15T00:14:26;5.50;99.90
7214;DHT22;3648;50.614;13.830;2022-11-15T00:16:53;5.60;99.90
7214;DHT22;3648;50.614;13.830;2022-11-15T00:19:20;5.60;99.90
7214;DHT22;3648;50.614;13.830;2022-11-15T00:21:47;5.60;99.90
7214;DHT22;3648;50.614;13.830;2022-11-15T00:24:15;5.70;99.90
7214;DHT22;3648;50.614;13.830;2022-11-15T00:26:42;5.70;99.90
7214;DHT22;3648;50.614;13.830;2022-11-15T00:29:09;5.80;99.90
7214;DHT22;3648;50.614;13.830;2022-11-15T00:31:36;5.80;99.90
7214;DHT22;3648;50.614;13.830;2022-11-15T00:34:03;5.90;99.90
7214;DHT22;3648;50.614;13.830;2022-11-15T00:36:32;5.90;99.90
7214;DHT22;3648;50.614;13.830;2022-11-15T00:38:59;5.90;99.90
7214;DHT22;3648;50.614;13.830;2022-11-15T00:41:27;6.00;99.90
7214;DHT22;3648;50.614;13.830;2022-11-15T00:43:55;6.00;99.90
7214;DHT22;3648;50.614;13.830;2022-11-15T00:46:22;6.00;99.90
7214;DHT22;3648;50.614;13.830;2022-11-15T00:48:48;6.00;99.90
7214;DHT22;3648;50.614;13.830;2022-11-15T00:51:15;6.10;99.90
7214;DHT22;3648;50.614;13.830;2022-11-15T00:53:42;6.10;99.90
7214;DHT22;3648;50.614;13.830;2022-11-15T00:56:09;6.10;99.90
7214;DHT22;3648;50.614;13.830;2022-11-15T00:58:37;6.10;99.90
7214;DHT22;3648;50.614;13.830;2022-11-15T01:01:09;6.10;99.90
7214;DHT22;3648;50.614;13.830;2022-11-15T01:03:37;6.20;99.90
7214;DHT22;3648;50.614;13.830;2022-11-15T01:06:05;6.20;99.90
7214;DHT22;3648;50.614;13.830;2022-11-15T01:08:33;6.20;99.90
7214;DHT22;3648;50.614;13.830;2022-11-15T01:11:01;6.30;99.90
7214;DHT22;3648;50.614;13.830;2022-11-15T01:13:30;6.30;99.90
7214;DHT22;3648;50.614;13.830;2022-11-15T01:15:59;6.30;99.90
7214;DHT22;3648;50.614;13.830;2022-11-15T01:18:26;6.30;99.90
7214;DHT22;3648;50.614;13.830;2022-11-15T01:20:53;6.40;99.90
7214;DHT22;3648;50.614;13.830;2022-11-15T01:23:20;6.40;99.90
7214;DHT22;3648;50.614;13.830;2022-11-15T01:25:46;6.40;99.90
7214;DHT22;3648;50.614;13.830;2022-11-15T01:28:14;6.40;99.90
7214;DHT22;3648;50.614;13.830;2022-11-15T01:30:41;6.40;99.90
7214;DHT22;3648;50.614;13.830;2022-11-15T01:33:09;6.40;99.90
7214;DHT22;3648;50.614;13.830;2022-11-15T01:35:38;6.50;99.90
7214;DHT22;3648;50.614;13.830;2022-11-15T01:38:05;6.50;99.90
7214;DHT22;3648;50.614;13.830;2022-11-15T01:40:32;6.40;99.90
7214;DHT22;3648;50.614;13.830;2022-11-15T01:45:41;6.50;99.90
7214;DHT22;3648;50.614;13.830;2022-11-15T01:48:10;6.50;99.90
7214;DHT22;3648;50.614;13.830;2022-11-15T01:50:38;6.50;99.90
7214;DHT22;3648;50.614;13.830;2022-11-15T01:53:05;6.50;99.90
7214;DHT22;3648;50.614;13.830;2022-11-15T01:55:32;6.40;99.90
7214;DHT22;3648;50.614;13.830;2022-11-15T01:58:01;6.40;99.90
7214;DHT22;3648;50.614;13.830;2022-11-15T02:00:29;6.40;99.90
7214;DHT22;3648;50.614;13.830;2022-11-15T02:02:56;6.40;99.90
7214;DHT22;3648;50.614;13.830;2022-11-15T02:05:24;6.40;99.90
7214;DHT22;3648;50.614;13.830;2022-11-15T02:07:52;6.40;99.90
7214;DHT22;3648;50.614;13.830;2022-11-15T02:10:21;6.30;99.90
7214;DHT22;3648;50.614;13.830;2022-11-15T02:12:49;6.40;99.90
7214;DHT22;3648;50.614;13.830;2022-11-15T02:15:17;6.40;99.90
7214;DHT22;3648;50.614;13.830;2022-11-15T02:18:07;6.40;99.90
7214;DHT22;3648;50.614;13.830;2022-11-15T02:20:51;6.40;99.90
7214;DHT22;3648;50.614;13.830;2022-11-15T02:26:40;6.40;99.90
7214;DHT22;3648;50.614;13.830;2022-11-15T02:29:14;6.40;99.90
7214;DHT22;3648;50.614;13.830;2022-11-15T02:31:53;6.40;99.90
7214;DHT22;3648;50.614;13.830;2022-11-15T02:34:28;6.40;99.90
7214;DHT22;3648;50.614;13.830;2022-11-15T02:37:03;6.40;99.90
7214;DHT22;3648;50.614;13.830;2022-11-15T02:39:38;6.40;99.90
7214;DHT22;3648;50.614;13.830;2022-11-15T02:42:13;6.40;99.90
7214;DHT22;3648;50.614;13.830;2022-11-15T02:44:56;6.40;99.90
7214;DHT22;3648;50.614;13.830;2022-11-15T02:47:26;6.40;99.90
7214;DHT22;3648;50.614;13.830;2022-11-15T02:49:58;6.40;99.90
7214;DHT22;3648;50.614;13.830;2022-11-15T02:52:25;6.40;99.90
7214;DHT22;3648;50.614;13.830;2022-11-15T02:54:53;6.40;99.90
7214;DHT22;3648;50.614;13.830;2022-11-15T02:57:29;6.40;99.90
7214;DHT22;3648;50.614;13.830;2022-11-15T03:00:16;6.40;99.90
7214;DHT22;3648;50.614;13.830;2022-11-15T03:03:08;6.40;99.90
7214;DHT22;3648;50.614;13.830;2022-11-15T03:05:42;6.40;99.90
7214;DHT22;3648;50.614;13.830;2022-11-15T03:08:14;6.40;99.90
7214;DHT22;3648;50.614;13.830;2022-11-15T03:10:46;6.40;99.90
7214;DHT22;3648;50.614;13.830;2022-11-15T03:13:21;6.40;99.90
7214;DHT22;3648;50.614;13.830;2022-11-15T03:15:57;6.40;99.90
7214;DHT22;3648;50.614;13.830;2022-11-15T03:18:33;6.40;99.90
7214;DHT22;3648;50.614;13.830;2022-11-15T03:21:04;6.50;99.90
7214;DHT22;3648;50.614;13.830;2022-11-15T03:23:33;6.50;99.90
7214;DHT22;3648;50.614;13.830;2022-11-15T03:26:06;6.40;99.90
7214;DHT22;3648;50.614;13.830;2022-11-15T03:28:36;6.40;99.90
7214;DHT22;3648;50.614;13.830;2022-11-15T03:31:05;6.40;99.90
7214;DHT22;3648;50.614;13.830;2022-11-15T03:33:49;6.40;99.90
7214;DHT22;3648;50.614;13.830;2022-11-15T03:36:17;6.50;99.90
7214;DHT22;3648;50.614;13.830;2022-11-15T03:38:45;6.50;99.90
7214;DHT22;3648;50.614;13.830;2022-11-15T03:41:17;6.50;99.90
7214;DHT22;3648;50.614;13.830;2022-11-15T03:43:52;6.50;99.90
7214;DHT22;3648;50.614;13.830;2022-11-15T03:46:25;6.60;99.90
7214;DHT22;3648;50.614;13.830;2022-11-15T03:48:59;6.60;99.90
7214;DHT22;3648;50.614;13.830;2022-11-15T03:51:29;6.60;99.90
7214;DHT22;3648;50.614;13.830;2022-11-15T03:53:55;6.70;99.90
7214;DHT22;3648;50.614;13.830;2022-11-15T03:56:22;6.70;99.90
7214;DHT22;3648;50.614;13.830;2022-11-15T03:58:50;6.70;99.90
7214;DHT22;3648;50.614;13.830;2022-11-15T04:01:16;6.70;99.90
7214;DHT22;3648;50.614;13.830;2022-11-15T04:03:43;6.70;99.90
7214;DHT22;3648;50.614;13.830;2022-11-15T04:06:12;6.60;99.90
7214;DHT22;3648;50.614;13.830;2022-11-15T04:08:39;6.60;99.90
7214;DHT22;3648;50.614;13.830;2022-11-15T04:11:06;6.60;99.90
7214;DHT22;3648;50.614;13.830;2022-11-15T04:13:33;6.60;99.90
7214;DHT22;3648;50.614;13.830;2022-11-15T04:16:00;6.60;99.90
7214;DHT22;3648;50.614;13.830;2022-11-15T04:18:27;6.60;99.90
7214;DHT22;3648;50.614;13.830;2022-11-15T04:20:54;6.60;99.90
7214;DHT22;3648;50.614;13.830;2022-11-15T04:23:42;6.60;99.90
7214;DHT22;3648;50.614;13.830;2022-11-15T04:26:26;6.50;99.90
7214;DHT22;3648;50.614;13.830;2022-11-15T04:28:53;6.50;99.90
7214;DHT22;3648;50.614;13.830;2022-11-15T04:31:34;6.50;99.90
7214;DHT22;3648;50.614;13.830;2022-11-15T04:34:01;6.50;99.90
7214;DHT22;3648;50.614;13.830;2022-11-15T04:36:28;6.60;99.90
7214;DHT22;3648;50.614;13.830;2022-11-15T04:39:13;6.60;99.90
7214;DHT22;3648;50.614;13.830;2022-11-15T04:41:41;6.60;99.90
7214;DHT22;3648;50.614;13.830;2022-11-15T04:44:07;6.60;99.90
7214;DHT22;3648;50.614;13.830;2022-11-15T04:46:35;6.60;99.90
7214;DHT22;3648;50.614;13.830;2022-11-15T04:49:02;6.60;99.90
7214;DHT22;3648;50.614;13.830;2022-11-15T04:51:29;6.60;99.90
7214;DHT22;3648;50.614;13.830;2022-11-15T04:53:56;6.60;99.90
7214;DHT22;3648;50.614;13.830;2022-11-15T04:56:24;6.60;99.90
7214;DHT22;3648;50.614;13.830;2022-11-15T04:58:51;6.60;99.90
7214;DHT22;3648;50.614;13.830;2022-11-15T05:01:18;6.60;99.90
7214;DHT22;3648;50.614;13.830;2022-11-15T05:03:45;6.60;99.90
7214;DHT22;3648;50.614;13.830;2022-11-15T05:06:30;6.60;99.90
7214;DHT22;3648;50.614;13.830;2022-11-15T05:08:57;6.60;99.90
7214;DHT22;3648;50.614;13.830;2022-11-15T05:11:26;6.60;99.90
7214;DHT22;3648;50.614;13.830;2022-11-15T05:13:53;6.70;99.90
7214;DHT22;3648;50.614;13.830;2022-11-15T05:16:20;6.60;99.90
7214;DHT22;3648;50.614;13.830;2022-11-15T05:18:50;6.70;99.90
7214;DHT22;3648;50.614;13.830;2022-11-15T05:21:17;6.70;99.90
7214;DHT22;3648;50.614;13.830;2022-11-15T05:23:44;6.70;99.90
7214;DHT22;3648;50.614;13.830;2022-11-15T05:26:12;6.70;99.90
7214;DHT22;3648;50.614;13.830;2022-11-15T05:28:40;6.70;99.90
7214;DHT22;3648;50.614;13.830;2022-11-15T05:31:08;6.60;99.90
7214;DHT22;3648;50.614;13.830;2022-11-15T05:33:37;6.70;99.90
7214;DHT22;3648;50.614;13.830;2022-11-15T05:36:07;6.70;99.90
7214;DHT22;3648;50.614;13.830;2022-11-15T05:38:36;6.70;99.90
7214;DHT22;3648;50.614;13.830;2022-11-15T05:41:04;6.70;99.90
7214;DHT22;3648;50.614;13.830;2022-11-15T05:43:34;6.70;99.90
7214;DHT22;3648;50.614;13.830;2022-11-15T05:46:03;6.70;99.90
7214;DHT22;3648;50.614;13.830;2022-11-15T05:48:31;6.80;99.90
7214;DHT22;3648;50.614;13.830;2022-11-15T05:50:58;6.80;99.90
7214;DHT22;3648;50.614;13.830;2022-11-15T05:53:26;6.70;99.90
7214;DHT22;3648;50.614;13.830;2022-11-15T05:55:53;6.80;99.90
7214;DHT22;3648;50.614;13.830;2022-11-15T05:58:20;6.80;99.90
7214;DHT22;3648;50.614;13.830;2022-11-15T06:00:47;6.80;99.90
7214;DHT22;3648;50.614;13.830;2022-11-15T06:03:16;6.80;99.90
7214;DHT22;3648;50.614;13.830;2022-11-15T06:05:43;6.80;99.90
7214;DHT22;3648;50.614;13.830;2022-11-15T06:08:10;6.80;99.90
7214;DHT22;3648;50.614;13.830;2022-11-15T06:10:37;6.90;99.90
7214;DHT22;3648;50.614;13.830;2022-11-15T06:13:04;6.90;99.90
7214;DHT22;3648;50.614;13.830;2022-11-15T06:15:32;6.90;99.90
7214;DHT22;3648;50.614;13.830;2022-11-15T06:17:59;6.90;99.90
7214;DHT22;3648;50.614;13.830;2022-11-15T06:20:29;6.90;99.90
7214;DHT22;3648;50.614;13.830;2022-11-15T06:22:57;6.80;99.90
7214;DHT22;3648;50.614;13.830;2022-11-15T06:25:24;6.90;99.90
7214;DHT22;3648;50.614;13.830;2022-11-15T06:27:51;6.90;99.90
7214;DHT22;3648;50.614;13.830;2022-11-15T06:30:19;6.80;99.90
7214;DHT22;3648;50.614;13.830;2022-11-15T06:32:46;6.80;99.90
7214;DHT22;3648;50.614;13.830;2022-11-15T06:35:13;6.80;99.90
7214;DHT22;3648;50.614;13.830;2022-11-15T06:37:41;6.80;99.90
7214;DHT22;3648;50.614;13.830;2022-11-15T06:40:10;6.90;99.90
7214;DHT22;3648;50.614;13.830;2022-11-15T06:42:37;6.90;99.90
7214;DHT22;3648;50.614;13.830;2022-11-15T06:45:04;6.90;99.90
7214;DHT22;3648;50.614;13.830;2022-11-15T06:47:31;6.90;99.90
7214;DHT22;3648;50.614;13.830;2022-11-15T06:49:58;6.90;99.90
7214;DHT22;3648;50.614;13.830;2022-11-15T06:52:26;6.90;99.90
7214;DHT22;3648;50.614;13.830;2022-11-15T06:54:59;6.90;99.90
7214;DHT22;3648;50.614;13.830;2022-11-15T06:57:26;6.90;99.90
7214;DHT22;3648;50.614;13.830;2022-11-15T06:59:53;6.90;99.90
7214;DHT22;3648;50.614;13.830;2022-11-15T07:02:20;6.90;99.90
7214;DHT22;3648;50.614;13.830;2022-11-15T07:04:46;6.90;99.90
7214;DHT22;3648;50.614;13.830;2022-11-15T07:07:13;6.90;99.90
7214;DHT22;3648;50.614;13.830;2022-11-15T07:09:40;7.00;99.90
7214;DHT22;3648;50.614;13.830;2022-11-15T07:12:08;6.90;99.90
7214;DHT22;3648;50.614;13.830;2022-11-15T07:14:35;6.90;99.90
7214;DHT22;3648;50.614;13.830;2022-11-15T07:17:03;7.00;99.90
7214;DHT22;3648;50.614;13.830;2022-11-15T07:19:30;6.90;99.90
7214;DHT22;3648;50.614;13.830;2022-11-15T07:21:57;6.80;99.90
7214;DHT22;3648;50.614;13.830;2022-11-15T07:24:24;6.80;99.90
7214;DHT22;3648;50.614;13.830;2022-11-15T07:26:51;6.80;99.90
7214;DHT22;3648;50.614;13.830;2022-11-15T07:29:19;6.70;99.90
7214;DHT22;3648;50.614;13.830;2022-11-15T07:31:46;6.70;99.90
7214;DHT22;3648;50.614;13.830;2022-11-15T07:34:13;6.60;99.90
7214;DHT22;3648;50.614;13.830;2022-11-15T07:36:40;6.60;99.90
7214;DHT22;3648;50.614;13.830;2022-11-15T07:39:07;6.60;99.90
7214;DHT22;3648;50.614;13.830;2022-11-15T07:41:34;6.60;99.90
7214;DHT22;3648;50.614;13.830;2022-11-15T07:44:01;6.60;99.90
7214;DHT22;3648;50.614;13.830;2022-11-15T07:46:30;6.60;99.90
7214;DHT22;3648;50.614;13.830;2022-11-15T07:48:57;6.50;99.90
7214;DHT22;3648;50.614;13.830;2022-11-15T07:51:24;6.40;99.90
7214;DHT22;3648;50.614;13.830;2022-11-15T07:53:51;6.40;99.90
7214;DHT22;3648;50.614;13.830;2022-11-15T07:56:18;6.40;99.90
7214;DHT22;3648;50.614;13.830;2022-11-15T07:58:46;6.40;99.90
7214;DHT22;3648;50.614;13.830;2022-11-15T08:01:13;6.40;99.90
7214;DHT22;3648;50.614;13.830;2022-11-15T08:03:41;6.40;99.90
7214;DHT22;3648;50.614;13.830;2022-11-15T08:06:08;6.40;99.90
7214;DHT22;3648;50.614;13.830;2022-11-15T08:08:35;6.40;99.90
7214;DHT22;3648;50.614;13.830;2022-11-15T08:11:02;6.40;99.90
7214;DHT22;3648;50.614;13.830;2022-11-15T08:13:29;6.40;99.90
7214;DHT22;3648;50.614;13.830;2022-11-15T08:15:58;6.40;99.90
7214;DHT22;3648;50.614;13.830;2022-11-15T08:18:25;6.40;99.90
7214;DHT22;3648;50.614;13.830;2022-11-15T08:20:53;6.40;99.90
7214;DHT22;3648;50.614;13.830;2022-11-15T08:23:20;6.40;99.90
7214;DHT22;3648;50.614;13.830;2022-11-15T08:25:47;6.40;99.90
7214;DHT22;3648;50.614;13.830;2022-11-15T08:28:16;6.40;99.90
7214;DHT22;3648;50.614;13.830;2022-11-15T08:30:43;6.50;99.90
7214;DHT22;3648;50.614;13.830;2022-11-15T08:33:12;6.40;99.90
7214;DHT22;3648;50.614;13.830;2022-11-15T08:35:39;6.40;99.90
7214;DHT22;3648;50.614;13.830;2022-11-15T08:38:08;6.40;99.90
7214;DHT22;3648;50.614;13.830;2022-11-15T08:40:35;6.50;99.90
7214;DHT22;3648;50.614;13.830;2022-11-15T08:43:02;6.50;99.90
7214;DHT22;3648;50.614;13.830;2022-11-15T08:45:29;6.50;99.90
7214;DHT22;3648;50.614;13.830;2022-11-15T08:47:57;6.50;99.90
7214;DHT22;3648;50.614;13.830;2022-11-15T08:50:24;6.50;99.90
7214;DHT22;3648;50.614;13.830;2022-11-15T08:52:51;6.50;99.90
7214;DHT22;3648;50.614;13.830;2022-11-15T08:55:19;6.50;99.90
7214;DHT22;3648;50.614;13.830;2022-11-15T08:57:46;6.50;99.90
7214;DHT22;3648;50.614;13.830;2022-11-15T09:00:14;6.50;99.90
7214;DHT22;3648;50.614;13.830;2022-11-15T09:02:41;6.50;99.90
7214;DHT22;3648;50.614;13.830;2022-11-15T09:05:08;6.50;99.90
7214;DHT22;3648;50.614;13.830;2022-11-15T09:07:35;6.50;99.90
7214;DHT22;3648;50.614;13.830;2022-11-15T09:10:03;6.60;99.90
7214;DHT22;3648;50.614;13.830;2022-11-15T09:12:31;6.60;99.90
7214;DHT22;3648;50.614;13.830;2022-11-15T09:14:58;6.60;99.90
7214;DHT22;3648;50.614;13.830;2022-11-15T09:17:25;6.70;99.90
7214;DHT22;3648;50.614;13.830;2022-11-15T09:19:52;6.70;99.90
7214;DHT22;3648;50.614;13.830;2022-11-15T09:22:19;6.80;1.00
7214;DHT22;3648;50.614;13.830;2022-11-15T09:24:46;6.80;1.00
7214;DHT22;3648;50.614;13.830;2022-11-15T09:27:13;6.80;99.90
7214;DHT22;3648;50.614;13.830;2022-11-15T09:29:41;6.80;70.00
7214;DHT22;3648;50.614;13.830;2022-11-15T09:32:09;6.90;99.90
7214;DHT22;3648;50.614;13.830;2022-11-15T09:34:35;6.90;99.90
7214;DHT22;3648;50.614;13.830;2022-11-15T09:37:03;7.00;1.00
7214;DHT22;3648;50.614;13.830;2022-11-15T09:39:29;7.00;1.00
7214;DHT22;3648;50.614;13.830;2022-11-15T09:44:56;7.10;99.90
7214;DHT22;3648;50.614;13.830;2022-11-15T09:47:38;7.10;99.90
7214;DHT22;3648;50.614;13.830;2022-11-15T09:50:10;7.10;99.90
7214;DHT22;3648;50.614;13.830;2022-11-15T09:52:41;7.00;99.90
7214;DHT22;3648;50.614;13.830;2022-11-15T09:55:10;7.00;1.00
7214;DHT22;3648;50.614;13.830;2022-11-15T09:57:44;7.00;1.00
7214;DHT22;3648;50.614;13.830;2022-11-15T10:00:18;7.10;1.00
7214;DHT22;3648;50.614;13.830;2022-11-15T10:03:01;7.10;1.00
7214;DHT22;3648;50.614;13.830;2022-11-15T10:05:30;7.20;1.00
7214;DHT22;3648;50.614;13.830;2022-11-15T10:08:03;7.20;1.00
7214;DHT22;3648;50.614;13.830;2022-11-15T10:10:36;7.20;99.90
7214;DHT22;3648;50.614;13.830;2022-11-15T10:13:07;7.30;99.90
7214;DHT22;3648;50.614;13.830;2022-11-15T10:15:42;7.30;1.00
7214;DHT22;3648;50.614;13.830;2022-11-15T10:18:18;7.40;1.00
7214;DHT22;3648;50.614;13.830;2022-11-15T10:20:49;7.40;99.90
7214;DHT22;3648;50.614;13.830;2022-11-15T10:23:19;7.40;1.00
7214;DHT22;3648;50.614;13.830;2022-11-15T10:25:48;7.50;99.90
7214;DHT22;3648;50.614;13.830;2022-11-15T10:28:21;7.50;99.90
7214;DHT22;3648;50.614;13.830;2022-11-15T10:30:52;7.50;99.90
7214;DHT22;3648;50.614;13.830;2022-11-15T10:33:26;7.50;99.90
7214;DHT22;3648;50.614;13.830;2022-11-15T10:36:16;7.50;99.90
7214;DHT22;3648;50.614;13.830;2022-11-15T10:38:53;7.50;99.90
7214;DHT22;3648;50.614;13.830;2022-11-15T10:41:22;7.50;99.90
7214;DHT22;3648;50.614;13.830;2022-11-15T10:44:08;7.50;99.90
7214;DHT22;3648;50.614;13.830;2022-11-15T10:46:40;7.50;99.90
7214;DHT22;3648;50.614;13.830;2022-11-15T10:49:14;7.50;99.90
7214;DHT22;3648;50.614;13.830;2022-11-15T10:51:44;7.50;99.90
7214;DHT22;3648;50.614;13.830;2022-11-15T10:54:11;7.50;1.00
7214;DHT22;3648;50.614;13.830;2022-11-15T10:56:39;7.50;99.90
7214;DHT22;3648;50.614;13.830;2022-11-15T10:59:15;7.50;99.90
7214;DHT22;3648;50.614;13.830;2022-11-15T11:01:48;7.50;99.90
7214;DHT22;3648;50.614;13.830;2022-11-15T11:04:15;7.50;1.00
7214;DHT22;3648;50.614;13.830;2022-11-15T11:06:49;7.40;1.00
7214;DHT22;3648;50.614;13.830;2022-11-15T11:09:25;7.50;71.50
7214;DHT22;3648;50.614;13.830;2022-11-15T11:11:54;7.50;99.90
7214;DHT22;3648;50.614;13.830;2022-11-15T11:14:23;7.40;99.90
7214;DHT22;3648;50.614;13.830;2022-11-15T11:16:55;7.50;99.90
7214;DHT22;3648;50.614;13.830;2022-11-15T11:19:46;7.50;25.80
7214;DHT22;3648;50.614;13.830;2022-11-15T11:22:24;7.50;1.00
7214;DHT22;3648;50.614;13.830;2022-11-15T11:25:05;7.50;1.00
7214;DHT22;3648;50.614;13.830;2022-11-15T11:27:43;7.50;1.00
7214;DHT22;3648;50.614;13.830;2022-11-15T11:30:16;7.50;7.30
7214;DHT22;3648;50.614;13.830;2022-11-15T11:32:55;7.50;30.50
7214;DHT22;3648;50.614;13.830;2022-11-15T11:35:28;7.50;37.20
7214;DHT22;3648;50.614;13.830;2022-11-15T11:38:06;7.50;1.00
7214;DHT22;3648;50.614;13.830;2022-11-15T11:40:43;7.50;23.10
7214;DHT22;3648;50.614;13.830;2022-11-15T11:43:16;7.50;99.90
7214;DHT22;3648;50.614;13.830;2022-11-15T11:48:41;7.40;99.90
7214;DHT22;3648;50.614;13.830;2022-11-15T11:51:14;7.40;1.00
7214;DHT22;3648;50.614;13.830;2022-11-15T11:53:47;7.40;99.90
7214;DHT22;3648;50.614;13.830;2022-11-15T11:56:21;7.40;99.90
7214;DHT22;3648;50.614;13.830;2022-11-15T11:58:51;7.40;99.90
7214;DHT22;3648;50.614;13.830;2022-11-15T12:01:23;7.40;99.90
7214;DHT22;3648;50.614;13.830;2022-11-15T12:03:55;7.30;99.90
7214;DHT22;3648;50.614;13.830;2022-11-15T12:06:28;7.20;99.90
7214;DHT22;3648;50.614;13.830;2022-11-15T12:09:02;7.20;99.90
7214;DHT22;3648;50.614;13.830;2022-11-15T12:11:37;7.20;99.90
7214;DHT22;3648;50.614;13.830;2022-11-15T12:14:12;7.10;99.90
7214;DHT22;3648;50.614;13.830;2022-11-15T12:16:43;7.00;99.90
7214;DHT22;3648;50.614;13.830;2022-11-15T12:19:11;7.00;99.90
7214;DHT22;3648;50.614;13.830;2022-11-15T12:21:43;7.00;99.90
7214;DHT22;3648;50.614;13.830;2022-11-15T12:24:16;7.00;99.90
7214;DHT22;3648;50.614;13.830;2022-11-15T12:26:48;6.90;99.90
7214;DHT22;3648;50.614;13.830;2022-11-15T12:29:20;6.90;99.90
7214;DHT22;3648;50.614;13.830;2022-11-15T12:31:51;6.90;99.90
7214;DHT22;3648;50.614;13.830;2022-11-15T12:34:46;6.90;99.90
7214;DHT22;3648;50.614;13.830;2022-11-15T12:37:44;6.90;99.90
7214;DHT22;3648;50.614;13.830;2022-11-15T12:40:23;6.80;99.90
7214;DHT22;3648;50.614;13.830;2022-11-15T12:43:00;6.70;99.90
7214;DHT22;3648;50.614;13.830;2022-11-15T12:45:29;6.70;99.90
7214;DHT22;3648;50.614;13.830;2022-11-15T12:50:59;6.70;99.90
7214;DHT22;3648;50.614;13.830;2022-11-15T12:53:27;6.70;99.90
7214;DHT22;3648;50.614;13.830;2022-11-15T12:56:22;6.70;99.90
7214;DHT22;3648;50.614;13.830;2022-11-15T12:58:54;6.70;99.90
7214;DHT22;3648;50.614;13.830;2022-11-15T13:01:57;6.70;99.90
7214;DHT22;3648;50.614;13.830;2022-11-15T13:04:27;6.60;99.90
7214;DHT22;3648;50.614;13.830;2022-11-15T13:06:57;6.60;99.90
7214;DHT22;3648;50.614;13.830;2022-11-15T13:09:50;6.60;99.90
7214;DHT22;3648;50.614;13.830;2022-11-15T13:12:49;6.50;99.90
7214;DHT22;3648;50.614;13.830;2022-11-15T13:15:51;6.50;99.90
7214;DHT22;3648;50.614;13.830;2022-11-15T13:18:29;6.40;99.90
7214;DHT22;3648;50.614;13.830;2022-11-15T13:20:57;6.40;99.90
7214;DHT22;3648;50.614;13.830;2022-11-15T13:23:26;6.40;99.90
7214;DHT22;3648;50.614;13.830;2022-11-15T13:26:08;6.40;99.90
7214;DHT22;3648;50.614;13.830;2022-11-15T13:28:39;6.40;37.00
7214;DHT22;3648;50.614;13.830;2022-11-15T13:31:27;6.30;1.00
7214;DHT22;3648;50.614;13.830;2022-11-15T13:33:57;6.20;1.00
7214;DHT22;3648;50.614;13.830;2022-11-15T13:36:27;6.20;99.90
7214;DHT22;3648;50.614;13.830;2022-11-15T13:38:58;6.20;1.00
7214;DHT22;3648;50.614;13.830;2022-11-15T13:41:28;6.20;99.90
7214;DHT22;3648;50.614;13.830;2022-11-15T13:43:56;6.20;99.90
7214;DHT22;3648;50.614;13.830;2022-11-15T13:46:25;6.20;52.80
7214;DHT22;3648;50.614;13.830;2022-11-15T13:48:55;6.10;99.90
7214;DHT22;3648;50.614;13.830;2022-11-15T13:51:26;6.10;99.90
7214;DHT22;3648;50.614;13.830;2022-11-15T13:53:57;6.00;99.90
7214;DHT22;3648;50.614;13.830;2022-11-15T13:56:27;6.00;99.90
7214;DHT22;3648;50.614;13.830;2022-11-15T13:58:55;6.00;99.90
7214;DHT22;3648;50.614;13.830;2022-11-15T14:01:22;6.00;92.80
7214;DHT22;3648;50.614;13.830;2022-11-15T14:03:55;6.00;99.90
7214;DHT22;3648;50.614;13.830;2022-11-15T14:06:24;6.00;99.90
7214;DHT22;3648;50.614;13.830;2022-11-15T14:09:30;6.00;99.90
7214;DHT22;3648;50.614;13.830;2022-11-15T14:11:58;6.00;99.90
7214;DHT22;3648;50.614;13.830;2022-11-15T14:14:28;5.90;99.90
7214;DHT22;3648;50.614;13.830;2022-11-15T14:16:56;5.90;57.80
7214;DHT22;3648;50.614;13.830;2022-11-15T14:19:38;5.90;99.90
7214;DHT22;3648;50.614;13.830;2022-11-15T14:22:14;5.90;99.90
7214;DHT22;3648;50.614;13.830;2022-11-15T14:24:44;5.90;99.90
7214;DHT22;3648;50.614;13.830;2022-11-15T14:27:20;5.90;99.90
7214;DHT22;3648;50.614;13.830;2022-11-15T14:29:47;5.90;99.90
7214;DHT22;3648;50.614;13.830;2022-11-15T14:32:16;5.90;99.90
7214;DHT22;3648;50.614;13.830;2022-11-15T14:34:44;5.90;99.90
7214;DHT22;3648;50.614;13.830;2022-11-15T14:37:29;5.90;99.90
7214;DHT22;3648;50.614;13.830;2022-11-15T14:40:00;5.90;99.90
7214;DHT22;3648;50.614;13.830;2022-11-15T14:42:28;5.90;99.90
7214;DHT22;3648;50.614;13.830;2022-11-15T14:44:55;6.00;99.90
7214;DHT22;3648;50.614;13.830;2022-11-15T14:47:22;5.90;99.90
7214;DHT22;3648;50.614;13.830;2022-11-15T14:49:48;5.90;1.00
7214;DHT22;3648;50.614;13.830;2022-11-15T14:52:24;5.90;1.00
7214;DHT22;3648;50.614;13.830;2022-11-15T14:54:53;5.90;99.90
7214;DHT22;3648;50.614;13.830;2022-11-15T14:57:21;5.90;99.90
7214;DHT22;3648;50.614;13.830;2022-11-15T14:59:48;5.90;99.90
7214;DHT22;3648;50.614;13.830;2022-11-15T15:02:18;5.90;99.90
7214;DHT22;3648;50.614;13.830;2022-11-15T15:04:45;5.90;99.90
7214;DHT22;3648;50.614;13.830;2022-11-15T15:07:12;5.90;99.90
7214;DHT22;3648;50.614;13.830;2022-11-15T15:09:39;5.90;99.90
7214;DHT22;3648;50.614;13.830;2022-11-15T15:12:16;5.90;99.90
7214;DHT22;3648;50.614;13.830;2022-11-15T15:14:47;5.90;99.90
7214;DHT22;3648;50.614;13.830;2022-11-15T15:17:14;5.90;99.90
7214;DHT22;3648;50.614;13.830;2022-11-15T15:19:42;5.90;99.90
7214;DHT22;3648;50.614;13.830;2022-11-15T15:22:13;5.80;99.90
7214;DHT22;3648;50.614;13.830;2022-11-15T15:24:41;5.80;99.90
7214;DHT22;3648;50.614;13.830;2022-11-15T15:27:08;5.80;99.90
7214;DHT22;3648;50.614;13.830;2022-11-15T15:29:35;5.80;99.90
7214;DHT22;3648;50.614;13.830;2022-11-15T15:32:04;5.80;99.90
7214;DHT22;3648;50.614;13.830;2022-11-15T15:34:31;5.80;99.90
7214;DHT22;3648;50.614;13.830;2022-11-15T15:37:19;5.70;99.90
7214;DHT22;3648;50.614;13.830;2022-11-15T15:39:49;5.70;99.90
7214;DHT22;3648;50.614;13.830;2022-11-15T15:42:16;5.70;99.90
7214;DHT22;3648;50.614;13.830;2022-11-15T15:44:43;5.70;99.90
7214;DHT22;3648;50.614;13.830;2022-11-15T15:47:12;5.80;99.90
7214;DHT22;3648;50.614;13.830;2022-11-15T15:49:40;5.80;99.90
7214;DHT22;3648;50.614;13.830;2022-11-15T15:52:07;5.80;99.90
7214;DHT22;3648;50.614;13.830;2022-11-15T15:54:34;5.80;99.90
7214;DHT22;3648;50.614;13.830;2022-11-15T15:57:01;5.70;99.90
7214;DHT22;3648;50.614;13.830;2022-11-15T15:59:28;5.70;99.90
7214;DHT22;3648;50.614;13.830;2022-11-15T16:01:55;5.70;99.90
7214;DHT22;3648;50.614;13.830;2022-11-15T16:04:23;5.70;99.90
7214;DHT22;3648;50.614;13.830;2022-11-15T16:06:51;5.70;99.90
7214;DHT22;3648;50.614;13.830;2022-11-15T16:09:20;5.70;99.90
7214;DHT22;3648;50.614;13.830;2022-11-15T16:12:08;5.70;99.90
7214;DHT22;3648;50.614;13.830;2022-11-15T16:14:35;5.70;99.90
7214;DHT22;3648;50.614;13.830;2022-11-15T16:17:02;5.70;99.90
7214;DHT22;3648;50.614;13.830;2022-11-15T16:19:31;5.70;99.90
7214;DHT22;3648;50.614;13.830;2022-11-15T16:21:58;5.70;99.90
7214;DHT22;3648;50.614;13.830;2022-11-15T16:24:25;5.60;99.90
7214;DHT22;3648;50.614;13.830;2022-11-15T16:26:52;5.60;99.90
7214;DHT22;3648;50.614;13.830;2022-11-15T16:29:19;5.60;99.90
7214;DHT22;3648;50.614;13.830;2022-11-15T16:31:46;5.60;99.90
7214;DHT22;3648;50.614;13.830;2022-11-15T16:34:13;5.60;99.90
7214;DHT22;3648;50.614;13.830;2022-11-15T16:36:41;5.60;99.90
7214;DHT22;3648;50.614;13.830;2022-11-15T16:39:10;5.60;99.90